Pagina principale
METAR-TAF:

METAR-TAF

Aeroporti :

Aeroporto di Beauvais Tillé

Beauvais, Francia

latitudine: 49-28N, longitudine: 002-07E, altezza: 109 m

Osservazione

Il bollettino è stato emesso 31 minuti fa, alle 23:30 UTC
Vento 4 kt da nord, variando fra nord/nord-ovest e nord-est
Temperature 11°C
Umidità 71%
Pressione 1022 hPa
Visibilità 10 km o più
nessuna nube inferiore a 1500 m e nessun cumulonembo

METAR: LFOB 292330Z AUTO 36004KT 330V040 CAVOK 11/06 Q1022 NOSIG

Ora: 02:01 (00:01 UTC)

Previsione

Il bollettino è stato emesso 1 ora e 1 minuti fa, alle 23:00 UTC
Previsione valida dal 30 alle 00 UTC al 30 alle 24 UTC
Vento 9 kt da est/nord-est
Visibilità 10 km o più
nessuna nube inferiore a 1500 m e nessun cumulonembo

TAF: LFOB 292300Z 3000/3024 06009KT CAVOK

Osservazioni e previsioni meteorologiche di più di 4000 aeroporti (messaggi METAR e TAF).

Le stazioni disponibili sono rappresentate dai dischi gialli e rossi sulla carta.

Puntare il mouse per vedere il nome della stazione.

Clicca sopra per visualizzare le osservazioni e previsioni meteorologiche.

Per cambiare la mappa : fare clic sui pulsanti verdi con una croce nera per ingrandire, il pulsante verde con un trattino per diminuire, o sulla freccia verde per le mappe adiacenti.


METAR-TAF: